Piedmont, SD (57769)

2:11 AM MDT on April 18, 2015 (GMT -0600)
Elk Creek/Running Deer Trail | | Change Station
CLOSE
Current Station
Personal Weather Station
Location: Piedmont, SD
Elevation: 3225 ft
Nearby Weather Stations

Elev 3225 ft 44.24 °N, 103.31 °W | Updated 16 seconds ago

Overcast
Overcast
49.8 °F
Feels Like 47 °F
N
7.0
Wind Variable Wind from South
Gusts 11.0 mph

Today
High -- | Low -- °F
--% Chance of Precip.
Yesterday
High -- | Low -- °F
Precip. -- in
6:04 AM 7:40 PM
Waning Crescent, 0% visible
Pressure 30.06 in
Visibility 10.0 miles
Clouds Few 1100 ft
Overcast 3400 ft
Windchill 47 °F
Dew Point 45 °F
Humidity 83%
Rainfall 0.00 in
Snow Depth Not available.
UV 0 out of 12
Pollen 7.10 out of 12
Air Quality Not available.
Flu Activity Sporadic
METAR KRCA 180758Z AUTO 26004KT 10SM FEW011 OVC034 09/08 A3005 RMK AO2 SLP177 T00900079 $

More Conditions Fewer Conditions

Pressure 30.06 in
Visibility 10.0 miles
Clouds Few 1100 ft
Overcast 3400 ft
Windchill 47 °F
Dew Point 45 °F
Humidity 83%
Rainfall 0.00 in
Snow Depth Not available.
UV 0 out of 12
Pollen 7.10 out of 12
Air Quality Not available.
Flu Activity Sporadic
METAR KRCA 180758Z AUTO 26004KT 10SM FEW011 OVC034 09/08 A3005 RMK AO2 SLP177 T00900079 $

More Conditions Fewer Conditions

10-Day Weather Forecast

Almanac

Astronomy

Apr. 18, 2015 Rise Set
Actual Time
Civil Twilight
Nautical Twilight
Astronomical Twilight
Moon
Length of Visible Light
Length of Day
Tomorrow will be .
, % of the Moon is Illuminated

Today's Extremes

State Highs State Lows

Community

WunderPhotos

Upload Photos

1,814,345 photos uploaded!

WunderBlogs® & News

Nearby

Air Quality

  Air Quality AQ Index Pollutant
Not available.

Snow Depth

Station Depth Elevation

Earthquake Activity

City Distance Mag. Time & Date
Minimum magnitude displayed is 2.5.

Coastal Water Temperatures

Place Temperature

Stations

Nearby Weather Stations

Station Location Temp. Windchill Dew Point Humidity Wind Precip. Elev Updated Type